createdAt,value
2022-08-23T00:00:09.000Z,1007.3
2022-08-23T00:01:21.000Z,1007.4
2022-08-23T00:01:46.880Z,1007.4
2022-08-23T00:02:34.000Z,1007.4
2022-08-23T00:03:46.000Z,1007.4
2022-08-23T00:04:58.000Z,1007.4
2022-08-23T00:06:10.000Z,1007.4
2022-08-23T00:07:22.000Z,1007.3
2022-08-23T00:08:34.000Z,1007.3
2022-08-23T00:09:46.000Z,1007.3
2022-08-23T00:10:58.000Z,1007.3
2022-08-23T00:12:10.000Z,1007.3
2022-08-23T00:13:22.000Z,1007.3
2022-08-23T00:14:34.000Z,1007.3
2022-08-23T00:15:47.000Z,1007.3
2022-08-23T00:16:59.000Z,1007.3
2022-08-23T00:18:11.000Z,1007.3
2022-08-23T00:19:23.000Z,1007.3
2022-08-23T00:20:35.000Z,1007.2
2022-08-23T00:21:47.000Z,1007.2
2022-08-23T00:23:00.000Z,1007.3
2022-08-23T00:24:12.000Z,1007.2
2022-08-23T00:25:23.000Z,1007.2
2022-08-23T00:26:35.000Z,1007.3
2022-08-23T00:27:47.000Z,1007.2
2022-08-23T00:29:00.000Z,1007.3
2022-08-23T00:30:12.000Z,1007.2
2022-08-23T00:31:24.000Z,1007.2
2022-08-23T00:32:36.000Z,1007.2
2022-08-23T00:33:48.000Z,1007.2
2022-08-23T00:35:00.000Z,1007.2
2022-08-23T00:36:13.000Z,1007.2
2022-08-23T00:37:25.000Z,1007.2
2022-08-23T00:38:37.000Z,1007.2
2022-08-23T00:39:49.000Z,1007.2
2022-08-23T00:41:00.000Z,1007.2
2022-08-23T00:42:13.000Z,1007.2
2022-08-23T00:43:25.000Z,1007.2
2022-08-23T00:44:37.000Z,1007.2
2022-08-23T00:45:48.000Z,1007.2
2022-08-23T00:47:00.000Z,1007.3
2022-08-23T00:48:13.000Z,1007.3
2022-08-23T00:49:25.000Z,1007.2
2022-08-23T00:50:37.000Z,1007.2
2022-08-23T00:51:49.000Z,1007.2
2022-08-23T00:53:01.000Z,1007.2
2022-08-23T00:54:13.000Z,1007.2
2022-08-23T00:55:26.000Z,1007.2
2022-08-23T00:56:38.000Z,1007.2
2022-08-23T00:57:50.000Z,1007.2
2022-08-23T00:59:02.000Z,1007.2
2022-08-23T01:00:14.000Z,1007.2
2022-08-23T01:01:26.000Z,1007.1
2022-08-23T01:02:38.000Z,1007.2
2022-08-23T01:03:50.000Z,1007.2
2022-08-23T01:05:02.000Z,1007.2
2022-08-23T01:06:14.000Z,1007.1
2022-08-23T01:07:26.000Z,1007.1
2022-08-23T01:08:39.000Z,1007.1
2022-08-23T01:09:51.000Z,1007.1
2022-08-23T01:11:03.000Z,1007.1
2022-08-23T01:12:15.000Z,1007.1
2022-08-23T01:13:27.000Z,1007.1
2022-08-23T01:14:40.000Z,1007.1
2022-08-23T01:15:52.000Z,1007.1
2022-08-23T01:17:03.000Z,1007.2
2022-08-23T01:18:15.000Z,1007.1
2022-08-23T01:19:27.000Z,1007.2
2022-08-23T01:20:40.000Z,1007.2
2022-08-23T01:21:52.000Z,1007.2
2022-08-23T01:23:04.000Z,1007.2
2022-08-23T01:24:16.000Z,1007.2
2022-08-23T01:25:28.000Z,1007.2
2022-08-23T01:26:40.000Z,1007.2
2022-08-23T01:27:53.000Z,1007.1
2022-08-23T01:29:05.000Z,1007.2
2022-08-23T01:30:17.000Z,1007.2
2022-08-23T01:31:29.000Z,1007.2
2022-08-23T01:32:40.000Z,1007.3
2022-08-23T01:33:53.000Z,1007.2
2022-08-23T01:35:05.000Z,1007.3
2022-08-23T01:37:29.000Z,1007.3
2022-08-23T01:38:41.000Z,1007.3
2022-08-23T01:39:53.000Z,1007.3
2022-08-23T01:41:06.000Z,1007.3
2022-08-23T01:41:31.285Z,1007.3
2022-08-23T01:42:18.000Z,1007.3
2022-08-23T01:43:30.000Z,1007.4
2022-08-23T01:44:42.000Z,1007.4
2022-08-23T01:45:54.000Z,1007.4
2022-08-23T01:47:07.000Z,1007.4
2022-08-23T01:48:18.000Z,1007.4
2022-08-23T01:49:30.000Z,1007.5
2022-08-23T01:50:42.000Z,1007.4
2022-08-23T01:51:54.000Z,1007.4
2022-08-23T01:53:07.000Z,1007.4
2022-08-23T01:54:19.000Z,1007.4
2022-08-23T01:55:31.000Z,1007.4
2022-08-23T01:56:43.000Z,1007.4
2022-08-23T01:57:55.000Z,1007.4
2022-08-23T01:59:07.000Z,1007.4
2022-08-23T02:00:20.000Z,1007.4
2022-08-23T02:01:32.000Z,1007.4
2022-08-23T02:02:44.000Z,1007.4
2022-08-23T02:03:55.000Z,1007.4
2022-08-23T02:05:07.000Z,1007.4
2022-08-23T02:06:20.000Z,1007.4
2022-08-23T02:07:32.000Z,1007.4
2022-08-23T02:08:44.000Z,1007.4
2022-08-23T02:09:56.000Z,1007.4
2022-08-23T02:11:08.000Z,1007.3
2022-08-23T02:12:20.000Z,1007.4
2022-08-23T02:13:33.000Z,1007.3
2022-08-23T02:14:45.000Z,1007.3
2022-08-23T02:15:57.000Z,1007.3
2022-08-23T02:17:09.000Z,1007.3
2022-08-23T02:18:21.000Z,1007.3
2022-08-23T02:19:34.000Z,1007.3
2022-08-23T02:21:57.000Z,1007.3
2022-08-23T02:23:09.000Z,1007.3
2022-08-23T02:24:21.000Z,1007.3
2022-08-23T02:25:33.000Z,1007.3
2022-08-23T02:25:59.146Z,1007.2
2022-08-23T02:26:46.000Z,1007.4
2022-08-23T02:27:58.000Z,1007.5
2022-08-23T02:29:10.000Z,1007.5
2022-08-23T02:30:22.000Z,1007.5
2022-08-23T02:31:34.000Z,1007.4
2022-08-23T02:32:47.000Z,1007.4
2022-08-23T02:33:59.000Z,1007.4
2022-08-23T02:35:11.000Z,1007.4
2022-08-23T02:36:23.000Z,1007.4
2022-08-23T02:37:34.000Z,1007.4
2022-08-23T02:38:47.000Z,1007.2
2022-08-23T02:39:59.000Z,1007.3
2022-08-23T02:41:11.000Z,1007.2
2022-08-23T02:42:23.000Z,1007.3
2022-08-23T02:43:35.000Z,1007.3
2022-08-23T02:44:47.000Z,1007.3
2022-08-23T02:46:00.000Z,1007.2
2022-08-23T02:47:12.000Z,1007.3
2022-08-23T02:48:24.000Z,1007.3
2022-08-23T02:49:36.000Z,1007.3
2022-08-23T02:50:48.000Z,1007.3
2022-08-23T02:52:01.000Z,1007.4
2022-08-23T02:54:24.000Z,1007.3
2022-08-23T02:55:36.000Z,1007.3
2022-08-23T02:56:48.000Z,1007.4
2022-08-23T02:58:00.000Z,1007.3
2022-08-23T02:58:26.158Z,1007.3
2022-08-23T02:59:13.000Z,1007.3
2022-08-23T03:00:25.000Z,1007.3
2022-08-23T03:01:37.000Z,1007.3
2022-08-23T03:02:49.000Z,1007.3
2022-08-23T03:04:01.000Z,1007.4
2022-08-23T03:05:14.000Z,1007.3
2022-08-23T03:06:26.000Z,1007.3
2022-08-23T03:07:38.000Z,1007.3
2022-08-23T03:08:49.000Z,1007.3
2022-08-23T03:10:01.000Z,1007.3
2022-08-23T03:11:14.000Z,1007.3
2022-08-23T03:12:26.000Z,1007.4
2022-08-23T03:13:38.000Z,1007.4
2022-08-23T03:14:50.000Z,1007.4
2022-08-23T03:16:02.000Z,1007.4
2022-08-23T03:17:14.000Z,1007.4
2022-08-23T03:18:27.000Z,1007.3
2022-08-23T03:19:39.000Z,1007.4
2022-08-23T03:20:51.000Z,1007.4
2022-08-23T03:22:03.000Z,1007.4
2022-08-23T03:23:15.000Z,1007.4
2022-08-23T03:24:27.000Z,1007.4
2022-08-23T03:26:51.000Z,1007.4
2022-08-23T03:28:03.000Z,1007.4
2022-08-23T03:29:15.000Z,1007.4
2022-08-23T03:30:27.000Z,1007.4
2022-08-23T03:30:53.163Z,1007.4
2022-08-23T03:31:40.000Z,1007.4
2022-08-23T03:32:52.000Z,1007.5
2022-08-23T03:34:04.000Z,1007.5
2022-08-23T03:35:16.000Z,1007.4
2022-08-23T03:36:28.000Z,1007.5
2022-08-23T03:37:41.000Z,1007.5
2022-08-23T03:38:53.000Z,1007.5
2022-08-23T03:40:04.000Z,1007.5
2022-08-23T03:41:16.000Z,1007.5
2022-08-23T03:42:28.000Z,1007.5
2022-08-23T03:43:40.000Z,1007.5
2022-08-23T03:44:53.000Z,1007.5
2022-08-23T03:46:05.000Z,1007.5
2022-08-23T03:47:17.000Z,1007.5
2022-08-23T03:48:29.000Z,1007.5
2022-08-23T03:49:41.000Z,1007.5
2022-08-23T03:50:54.000Z,1007.5
2022-08-23T03:52:06.000Z,1007.6
2022-08-23T03:53:18.000Z,1007.6
2022-08-23T03:54:30.000Z,1007.7
2022-08-23T03:55:41.000Z,1007.7
2022-08-23T03:56:54.000Z,1007.6
2022-08-23T03:58:06.000Z,1007.6
2022-08-23T03:59:18.000Z,1007.7
2022-08-23T04:00:30.000Z,1007.7
2022-08-23T04:01:42.000Z,1007.6
2022-08-23T04:02:54.000Z,1007.7
2022-08-23T04:04:07.000Z,1007.7
2022-08-23T04:05:19.000Z,1007.6
2022-08-23T04:06:31.000Z,1007.6
2022-08-23T04:07:43.000Z,1007.7
2022-08-23T04:08:55.000Z,1007.7
2022-08-23T04:10:08.000Z,1007.7
2022-08-23T04:11:19.000Z,1007.7
2022-08-23T04:12:31.000Z,1007.6
2022-08-23T04:13:43.000Z,1007.7
2022-08-23T04:14:55.000Z,1007.7
2022-08-23T04:16:07.000Z,1007.7
2022-08-23T04:17:20.000Z,1007.7
2022-08-23T04:18:32.000Z,1007.7
2022-08-23T04:19:44.000Z,1007.7
2022-08-23T04:20:56.000Z,1007.7
2022-08-23T04:22:08.000Z,1007.8
2022-08-23T04:23:21.000Z,1007.7
2022-08-23T04:24:33.000Z,1007.8
2022-08-23T04:25:45.000Z,1007.8
2022-08-23T04:26:56.000Z,1007.8
2022-08-23T04:28:08.000Z,1007.8
2022-08-23T04:29:21.000Z,1007.7
2022-08-23T04:30:33.000Z,1007.8
2022-08-23T04:32:57.000Z,1007.8
2022-08-23T04:34:09.000Z,1007.7
2022-08-23T04:35:21.000Z,1007.8
2022-08-23T04:36:34.000Z,1007.8
2022-08-23T04:36:59.374Z,1007.7
2022-08-23T04:37:46.000Z,1007.8
2022-08-23T04:40:10.000Z,1007.8
2022-08-23T04:41:22.000Z,1007.8
2022-08-23T04:42:34.000Z,1007.8
2022-08-23T04:44:12.483Z,1007.8
2022-08-23T04:44:58.000Z,1007.8
2022-08-23T04:46:10.000Z,1007.8
2022-08-23T04:47:21.000Z,1007.8
2022-08-23T04:48:33.000Z,1007.8
2022-08-23T04:49:00.234Z,1007.7
2022-08-23T04:49:46.000Z,1007.8
2022-08-23T04:50:58.000Z,1007.8
2022-08-23T04:52:10.000Z,1007.8
2022-08-23T04:53:22.000Z,1007.9
2022-08-23T04:54:34.000Z,1007.8
2022-08-23T04:55:47.000Z,1007.9
2022-08-23T04:56:59.000Z,1007.9
2022-08-23T04:58:11.000Z,1007.8
2022-08-23T04:59:23.000Z,1007.9
2022-08-23T05:00:35.000Z,1007.9
2022-08-23T05:01:48.000Z,1007.9
2022-08-23T05:02:59.000Z,1007.9
2022-08-23T05:04:11.000Z,1007.9
2022-08-23T05:05:23.000Z,1008
2022-08-23T05:06:35.000Z,1008
2022-08-23T05:07:47.000Z,1008
2022-08-23T05:09:00.000Z,1008
2022-08-23T05:10:12.000Z,1008
2022-08-23T05:11:24.000Z,1008.1
2022-08-23T05:12:36.000Z,1008.1
2022-08-23T05:13:48.000Z,1008.1
2022-08-23T05:15:01.000Z,1008.1
2022-08-23T05:16:13.000Z,1008.2
2022-08-23T05:17:25.000Z,1008.1
2022-08-23T05:18:36.000Z,1008.1
2022-08-23T05:19:48.000Z,1008.1
2022-08-23T05:21:00.000Z,1008.1
2022-08-23T05:22:13.000Z,1008.1
2022-08-23T05:23:25.000Z,1008.1
2022-08-23T05:24:37.000Z,1008.1
2022-08-23T05:25:49.000Z,1008.1
2022-08-23T05:27:01.000Z,1008.1
2022-08-23T05:28:14.000Z,1008.1
2022-08-23T05:29:26.000Z,1008.1
2022-08-23T05:30:38.000Z,1008.1
2022-08-23T05:31:50.000Z,1008.2
2022-08-23T05:33:02.000Z,1008.2
2022-08-23T05:34:14.000Z,1008.2
2022-08-23T05:35:26.000Z,1008.2
2022-08-23T05:36:38.000Z,1008.2
2022-08-23T05:37:50.000Z,1008.2
2022-08-23T05:39:02.000Z,1008.2
2022-08-23T05:40:14.000Z,1008.2
2022-08-23T05:41:27.000Z,1008.3
2022-08-23T05:42:39.000Z,1008.3
2022-08-23T05:43:51.000Z,1008.3
2022-08-23T05:45:03.000Z,1008.3
2022-08-23T05:46:15.000Z,1008.3
2022-08-23T05:47:28.000Z,1008.3
2022-08-23T05:48:40.000Z,1008.3
2022-08-23T05:49:51.000Z,1008.2
2022-08-23T05:51:03.000Z,1008.2
2022-08-23T05:52:15.000Z,1008.2
2022-08-23T05:53:27.000Z,1008.2
2022-08-23T05:54:40.000Z,1008.3
2022-08-23T05:55:52.000Z,1008.3
2022-08-23T05:57:04.000Z,1008.3
2022-08-23T05:58:16.000Z,1008.3
2022-08-23T05:59:28.000Z,1008.3
2022-08-23T06:00:41.000Z,1008.3
2022-08-23T06:01:53.000Z,1008.3
2022-08-23T06:03:05.000Z,1008.3
2022-08-23T06:04:17.000Z,1008.2
2022-08-23T06:05:28.000Z,1008.3
2022-08-23T06:06:40.000Z,1008.3
2022-08-23T06:07:53.000Z,1008.3
2022-08-23T06:09:05.000Z,1008.3
2022-08-23T06:10:17.000Z,1008.3
2022-08-23T06:11:29.000Z,1008.4
2022-08-23T06:12:41.000Z,1008.3
2022-08-23T06:13:54.000Z,1008.4
2022-08-23T06:15:06.000Z,1008.2
2022-08-23T06:16:18.000Z,1008.3
2022-08-23T06:17:30.000Z,1008.3
2022-08-23T06:18:42.000Z,1008.3
2022-08-23T06:19:55.000Z,1008.3
2022-08-23T06:21:06.000Z,1008.3
2022-08-23T06:22:18.000Z,1008.3
2022-08-23T06:23:30.000Z,1008.3
2022-08-23T06:24:42.000Z,1008.3
2022-08-23T06:25:54.000Z,1008.3
2022-08-23T06:27:07.000Z,1008.3
2022-08-23T06:28:19.000Z,1008.4
2022-08-23T06:29:31.000Z,1008.4
2022-08-23T06:30:43.000Z,1008.4
2022-08-23T06:31:55.000Z,1008.4
2022-08-23T06:33:08.000Z,1008.4
2022-08-23T06:34:20.000Z,1008.4
2022-08-23T06:35:32.000Z,1008.5
2022-08-23T06:36:43.000Z,1008.5
2022-08-23T06:37:55.000Z,1008.5
2022-08-23T06:39:07.000Z,1008.4
2022-08-23T06:40:20.000Z,1008.5
2022-08-23T06:41:32.000Z,1008.5
2022-08-23T06:42:44.000Z,1008.5
2022-08-23T06:43:56.000Z,1008.5
2022-08-23T06:45:08.000Z,1008.5
2022-08-23T06:46:21.000Z,1008.5
2022-08-23T06:47:33.000Z,1008.4
2022-08-23T06:48:45.000Z,1008.3
2022-08-23T06:49:57.000Z,1008.4
2022-08-23T06:51:09.000Z,1008.4
2022-08-23T06:52:21.000Z,1008.4
2022-08-23T06:53:33.000Z,1008.5
2022-08-23T06:54:45.000Z,1008.4
2022-08-23T06:55:57.000Z,1008.5
2022-08-23T06:57:09.000Z,1008.4
2022-08-23T06:58:21.000Z,1008.5
2022-08-23T06:59:34.000Z,1008.5
2022-08-23T07:00:46.000Z,1008.5
2022-08-23T07:03:10.000Z,1008.4
2022-08-23T07:06:47.000Z,1008.5
2022-08-23T07:07:12.575Z,1008.5
2022-08-23T07:07:58.000Z,1008.5
2022-08-23T07:09:10.000Z,1008.6
2022-08-23T07:09:36.943Z,1008.5
2022-08-23T07:10:22.000Z,1008.5
2022-08-23T07:10:49.000Z,1008.5
2022-08-23T07:11:34.000Z,1008.5
2022-08-23T07:12:47.000Z,1008.5
2022-08-23T07:13:59.000Z,1008.6
2022-08-23T07:15:11.000Z,1008.6
2022-08-23T07:16:23.000Z,1008.6
2022-08-23T07:17:35.000Z,1008.6
2022-08-23T07:18:48.000Z,1008.6
2022-08-23T07:20:00.000Z,1008.7
2022-08-23T07:21:12.000Z,1008.7
2022-08-23T07:22:24.000Z,1008.7
2022-08-23T07:23:35.000Z,1008.6
2022-08-23T07:24:47.000Z,1008.6
2022-08-23T07:26:00.000Z,1008.7
2022-08-23T07:27:12.000Z,1008.7
2022-08-23T07:28:24.000Z,1008.7
2022-08-23T07:29:36.000Z,1008.7
2022-08-23T07:30:48.000Z,1008.7
2022-08-23T07:32:01.000Z,1008.6
2022-08-23T07:33:13.000Z,1008.7
2022-08-23T07:34:25.000Z,1008.7
2022-08-23T07:35:37.000Z,1008.7
2022-08-23T07:36:49.000Z,1008.7
2022-08-23T07:38:02.000Z,1008.7
2022-08-23T07:39:13.000Z,1008.7
2022-08-23T07:40:25.000Z,1008.7
2022-08-23T07:41:37.000Z,1008.7
2022-08-23T07:42:49.000Z,1008.7
2022-08-23T07:45:14.000Z,1008.7
2022-08-23T07:46:26.000Z,1008.7
2022-08-23T07:47:38.000Z,1008.7
2022-08-23T07:48:50.000Z,1008.7
2022-08-23T07:49:16.089Z,1008.7
2022-08-23T07:50:02.000Z,1008.7
2022-08-23T07:51:15.000Z,1008.7
2022-08-23T07:52:27.000Z,1008.8
2022-08-23T07:53:39.000Z,1008.8
2022-08-23T07:54:50.000Z,1008.7
2022-08-23T07:56:02.000Z,1008.7
2022-08-23T07:57:14.000Z,1008.7
2022-08-23T07:58:27.000Z,1008.7
2022-08-23T07:59:39.000Z,1008.7
2022-08-23T08:00:51.000Z,1008.7
2022-08-23T08:02:03.000Z,1008.7
2022-08-23T08:03:15.000Z,1008.8
2022-08-23T08:04:28.000Z,1008.7
2022-08-23T08:06:52.000Z,1008.6
2022-08-23T08:08:04.000Z,1008.6
2022-08-23T08:09:16.000Z,1008.7
2022-08-23T08:10:28.000Z,1008.7
2022-08-23T08:10:54.000Z,1008.7
2022-08-23T08:11:40.000Z,1008.7
2022-08-23T08:12:52.000Z,1008.8
2022-08-23T08:14:04.000Z,1008.7
2022-08-23T08:15:16.000Z,1008.8
2022-08-23T08:16:28.000Z,1008.8
2022-08-23T08:17:41.114Z,1008.8
2022-08-23T08:18:53.000Z,1008.8
2022-08-23T08:20:05.000Z,1008.8
2022-08-23T08:21:17.000Z,1008.8
2022-08-23T08:22:29.000Z,1008.8
2022-08-23T08:23:42.000Z,1008.8
2022-08-23T08:24:54.000Z,1008.8
2022-08-23T08:26:05.000Z,1008.8
2022-08-23T08:27:17.000Z,1008.8
2022-08-23T08:28:29.000Z,1008.7
2022-08-23T08:29:41.000Z,1008.7
2022-08-23T08:30:54.000Z,1008.7
2022-08-23T08:32:06.000Z,1008.8
2022-08-23T08:33:18.000Z,1008.7
2022-08-23T08:34:30.000Z,1008.7
2022-08-23T08:35:42.000Z,1008.7
2022-08-23T08:36:55.000Z,1008.7
2022-08-23T08:38:07.000Z,1008.7
2022-08-23T08:39:19.000Z,1008.8
2022-08-23T08:40:31.000Z,1008.8
2022-08-23T08:41:42.000Z,1008.8
2022-08-23T08:42:55.000Z,1008.7
2022-08-23T08:44:07.000Z,1008.7
2022-08-23T08:45:19.000Z,1008.7
2022-08-23T08:46:31.000Z,1008.7
2022-08-23T08:47:43.000Z,1008.7
2022-08-23T08:48:54.000Z,1008.7
2022-08-23T08:50:07.000Z,1008.7
2022-08-23T08:51:19.000Z,1008.7
2022-08-23T08:52:31.000Z,1008.7
2022-08-23T08:53:43.000Z,1008.7
2022-08-23T08:54:55.000Z,1008.8
2022-08-23T08:56:08.000Z,1008.8
2022-08-23T08:59:44.000Z,1008.7
2022-08-23T09:00:56.000Z,1008.7
2022-08-23T09:02:34.417Z,1008.7
2022-08-23T09:03:21.000Z,1008.7
2022-08-23T09:03:46.000Z,1008.7
2022-08-23T09:04:32.000Z,1008.7
2022-08-23T09:05:44.000Z,1008.7
2022-08-23T09:06:56.000Z,1008.7
2022-08-23T09:07:23.000Z,1008.7
2022-08-23T09:08:08.000Z,1008.7
2022-08-23T09:09:21.000Z,1008.7
2022-08-23T09:10:33.000Z,1008.6
2022-08-23T09:11:45.000Z,1008.7
2022-08-23T09:12:57.000Z,1008.6
2022-08-23T09:14:09.000Z,1008.6
2022-08-23T09:15:21.000Z,1008.7
2022-08-23T09:16:34.000Z,1008.7
2022-08-23T09:17:46.000Z,1008.7
2022-08-23T09:18:58.000Z,1008.6
2022-08-23T09:20:09.000Z,1008.6
2022-08-23T09:21:21.000Z,1008.6
2022-08-23T09:22:34.000Z,1008.6
2022-08-23T09:23:46.000Z,1008.6
2022-08-23T09:24:58.000Z,1008.5
2022-08-23T09:26:10.000Z,1008.6
2022-08-23T09:27:22.000Z,1008.6
2022-08-23T09:28:35.000Z,1008.6
2022-08-23T09:29:47.000Z,1008.6
2022-08-23T09:30:59.000Z,1008.6
2022-08-23T09:33:23.000Z,1008.5
2022-08-23T09:34:35.000Z,1008.6
2022-08-23T09:35:47.000Z,1008.5
2022-08-23T09:36:59.000Z,1008.5
2022-08-23T09:37:25.000Z,1008.6
2022-08-23T09:38:11.000Z,1008.6
2022-08-23T09:39:23.000Z,1008.6
2022-08-23T09:40:35.000Z,1008.6
2022-08-23T09:41:48.000Z,1008.5
2022-08-23T09:43:00.000Z,1008.5
2022-08-23T09:44:12.000Z,1008.6
2022-08-23T09:45:24.000Z,1008.4
2022-08-23T09:46:36.000Z,1008.5
2022-08-23T09:47:49.000Z,1008.5
2022-08-23T09:49:01.000Z,1008.5
2022-08-23T09:50:13.000Z,1008.4
2022-08-23T09:51:24.000Z,1008.5
2022-08-23T09:52:36.000Z,1008.4
2022-08-23T09:53:48.000Z,1008.4
2022-08-23T09:55:01.000Z,1008.4
2022-08-23T09:56:13.000Z,1008.4
2022-08-23T09:57:25.000Z,1008.4
2022-08-23T09:58:37.000Z,1008.4
2022-08-23T09:59:49.000Z,1008.3
2022-08-23T10:01:02.000Z,1008.4
2022-08-23T10:02:14.000Z,1008.3
2022-08-23T10:03:26.000Z,1008.3
2022-08-23T10:04:38.000Z,1008.3
2022-08-23T10:05:50.000Z,1008.3
2022-08-23T10:07:02.000Z,1008.3
2022-08-23T10:08:14.000Z,1008.3
2022-08-23T10:09:26.000Z,1008.3
2022-08-23T10:10:38.000Z,1008.3
2022-08-23T10:11:50.000Z,1008.3
2022-08-23T10:13:02.000Z,1008.3
2022-08-23T10:14:15.000Z,1008.3
2022-08-23T10:15:27.000Z,1008.3
2022-08-23T10:16:39.000Z,1008.2
2022-08-23T10:19:03.000Z,1008.3
2022-08-23T10:20:16.000Z,1008.3
2022-08-23T10:21:28.207Z,1008.3
2022-08-23T10:23:05.906Z,1008.3
2022-08-23T10:23:51.000Z,1008.2
2022-08-23T10:25:03.000Z,1008.2
2022-08-23T10:26:15.000Z,1008.3
2022-08-23T10:27:28.000Z,1008.3
2022-08-23T10:27:54.660Z,1008.3
2022-08-23T10:28:40.000Z,1008.2
2022-08-23T10:29:52.000Z,1008.2
2022-08-23T10:31:04.000Z,1008.3
2022-08-23T10:32:16.000Z,1008.3
2022-08-23T10:33:29.000Z,1008.3
2022-08-23T10:34:41.000Z,1008.3
2022-08-23T10:35:53.000Z,1008.3
2022-08-23T10:37:05.000Z,1008.3
2022-08-23T10:38:17.000Z,1008.4
2022-08-23T10:39:29.000Z,1008.3
2022-08-23T10:40:41.000Z,1008.4
2022-08-23T10:41:53.000Z,1008.2
2022-08-23T10:43:05.000Z,1008.2
2022-08-23T10:44:17.000Z,1008.3
2022-08-23T10:45:29.000Z,1008.2
2022-08-23T10:46:42.000Z,1008.2
2022-08-23T10:47:54.000Z,1008.1
2022-08-23T10:49:06.000Z,1008
2022-08-23T10:50:18.000Z,1008.1
2022-08-23T10:51:30.000Z,1008.1
2022-08-23T10:52:43.000Z,1008.1
2022-08-23T10:53:55.000Z,1008.1
2022-08-23T10:55:06.000Z,1008.1
2022-08-23T10:56:18.000Z,1008.1
2022-08-23T10:57:30.000Z,1008.2
2022-08-23T10:58:42.000Z,1008.2
2022-08-23T10:59:55.000Z,1008.1
2022-08-23T11:01:07.000Z,1008.1
2022-08-23T11:02:19.000Z,1008.1
2022-08-23T11:03:31.000Z,1008.1
2022-08-23T11:04:43.000Z,1008.1
2022-08-23T11:05:56.000Z,1008.1
2022-08-23T11:07:08.000Z,1008.1
2022-08-23T11:08:20.000Z,1008
2022-08-23T11:09:32.000Z,1008
2022-08-23T11:10:44.000Z,1008.1
2022-08-23T11:11:56.000Z,1008
2022-08-23T11:13:08.000Z,1008.1
2022-08-23T11:14:20.000Z,1008.1
2022-08-23T11:15:32.000Z,1008.1
2022-08-23T11:16:44.000Z,1008
2022-08-23T11:17:56.000Z,1008
2022-08-23T11:19:09.000Z,1008
2022-08-23T11:20:21.000Z,1008
2022-08-23T11:21:33.000Z,1007.9
2022-08-23T11:22:45.000Z,1008
2022-08-23T11:23:57.000Z,1008
2022-08-23T11:25:10.000Z,1008
2022-08-23T11:26:22.000Z,1008
2022-08-23T11:27:33.000Z,1007.9
2022-08-23T11:28:45.000Z,1008
2022-08-23T11:31:10.000Z,1007.9
2022-08-23T11:32:22.000Z,1007.9
2022-08-23T11:33:34.000Z,1007.9
2022-08-23T11:34:46.000Z,1008
2022-08-23T11:35:12.000Z,1007.9
2022-08-23T11:35:58.000Z,1007.9
2022-08-23T11:37:10.000Z,1008
2022-08-23T11:39:35.000Z,1007.9
2022-08-23T11:40:47.000Z,1007.9
2022-08-23T11:41:59.000Z,1007.9
2022-08-23T11:43:11.000Z,1007.8
2022-08-23T11:43:37.000Z,1008
2022-08-23T11:44:23.000Z,1007.9
2022-08-23T11:45:35.000Z,1007.9
2022-08-23T11:46:47.000Z,1007.9
2022-08-23T11:47:59.000Z,1007.9
2022-08-23T11:49:11.000Z,1007.9
2022-08-23T11:50:23.000Z,1007.8
2022-08-23T11:51:36.000Z,1007.9
2022-08-23T11:52:48.000Z,1007.8
2022-08-23T11:54:00.000Z,1007.8
2022-08-23T11:55:12.000Z,1007.8
2022-08-23T11:56:24.000Z,1007.9
2022-08-23T11:57:37.000Z,1007.8
2022-08-23T11:58:49.000Z,1007.9
2022-08-23T12:00:00.000Z,1007.9
2022-08-23T12:01:12.000Z,1007.8
2022-08-23T12:02:24.000Z,1007.8
2022-08-23T12:03:37.000Z,1007.8
2022-08-23T12:04:49.000Z,1007.9
2022-08-23T12:06:01.000Z,1007.8
2022-08-23T12:07:13.000Z,1007.9
2022-08-23T12:08:25.000Z,1007.9
2022-08-23T12:09:37.000Z,1007.9
2022-08-23T12:10:50.000Z,1007.9
2022-08-23T12:12:02.000Z,1007.9
2022-08-23T12:13:14.000Z,1007.9
2022-08-23T12:14:26.000Z,1007.9
2022-08-23T12:15:37.000Z,1007.9
2022-08-23T12:16:50.000Z,1007.9
2022-08-23T12:18:02.000Z,1007.9
2022-08-23T12:19:14.000Z,1007.9
2022-08-23T12:20:26.000Z,1007.9
2022-08-23T12:21:38.000Z,1007.9
2022-08-23T12:22:51.000Z,1007.8
2022-08-23T12:24:03.000Z,1007.9
2022-08-23T12:25:15.000Z,1007.9
2022-08-23T12:26:27.000Z,1007.8
2022-08-23T12:27:39.000Z,1007.8
2022-08-23T12:28:51.000Z,1007.9
2022-08-23T12:30:04.000Z,1007.9
2022-08-23T12:31:15.000Z,1007.8
2022-08-23T12:32:27.000Z,1007.8
2022-08-23T12:33:39.000Z,1007.8
2022-08-23T12:34:51.000Z,1007.8
2022-08-23T12:37:16.000Z,1007.8
2022-08-23T12:38:28.000Z,1007.8
2022-08-23T12:39:40.000Z,1007.8
2022-08-23T12:40:52.000Z,1007.8
2022-08-23T12:41:18.000Z,1007.8
2022-08-23T12:42:05.000Z,1007.8
2022-08-23T12:43:17.000Z,1007.7
2022-08-23T12:44:29.000Z,1007.7
2022-08-23T12:45:41.000Z,1007.7
2022-08-23T12:48:04.000Z,1007.7
2022-08-23T12:49:17.000Z,1007.7
2022-08-23T12:50:28.000Z,1007.7
2022-08-23T12:51:40.000Z,1007.8
2022-08-23T12:52:07.138Z,1007.7
2022-08-23T12:52:52.000Z,1007.8
2022-08-23T12:54:04.000Z,1007.8
2022-08-23T12:55:17.000Z,1007.8
2022-08-23T12:56:29.000Z,1007.8
2022-08-23T12:57:41.000Z,1007.8
2022-08-23T12:58:53.000Z,1007.9
2022-08-23T13:00:05.000Z,1007.9
2022-08-23T13:01:18.000Z,1007.9
2022-08-23T13:02:30.000Z,1007.9
2022-08-23T13:03:42.000Z,1007.8
2022-08-23T13:04:54.000Z,1007.8
2022-08-23T13:06:05.000Z,1007.8
2022-08-23T13:07:17.000Z,1007.8
2022-08-23T13:08:30.000Z,1007.8
2022-08-23T13:09:42.000Z,1007.7
2022-08-23T13:10:54.000Z,1007.7
2022-08-23T13:12:06.000Z,1007.7
2022-08-23T13:13:18.000Z,1007.6
2022-08-23T13:14:31.000Z,1007.7
2022-08-23T13:15:43.000Z,1007.6
2022-08-23T13:16:55.000Z,1007.7
2022-08-23T13:18:07.000Z,1007.6
2022-08-23T13:19:19.000Z,1007.6
2022-08-23T13:20:31.000Z,1007.7
2022-08-23T13:21:43.000Z,1007.7
2022-08-23T13:22:55.000Z,1007.5
2022-08-23T13:24:07.000Z,1007.6
2022-08-23T13:25:19.000Z,1007.6
2022-08-23T13:26:31.000Z,1007.6
2022-08-23T13:27:44.000Z,1007.6
2022-08-23T13:28:56.000Z,1007.6
2022-08-23T13:31:20.000Z,1007.7
2022-08-23T13:32:32.000Z,1007.7
2022-08-23T13:33:45.000Z,1007.7
2022-08-23T13:34:57.000Z,1007.6
2022-08-23T13:35:22.000Z,1007.7
2022-08-23T13:36:09.000Z,1007.6
2022-08-23T13:37:20.000Z,1007.6
2022-08-23T13:38:32.000Z,1007.7
2022-08-23T13:39:44.000Z,1007.6
2022-08-23T13:40:57.000Z,1007.7
2022-08-23T13:42:09.000Z,1007.6
2022-08-23T13:43:21.000Z,1007.6
2022-08-23T13:44:33.000Z,1007.6
2022-08-23T13:45:45.000Z,1007.6
2022-08-23T13:46:58.000Z,1007.5
2022-08-23T13:48:10.000Z,1007.6
2022-08-23T13:49:22.000Z,1007.6
2022-08-23T13:50:34.000Z,1007.5
2022-08-23T13:51:46.000Z,1007.5
2022-08-23T13:52:58.000Z,1007.5
2022-08-23T13:54:10.000Z,1007.5
2022-08-23T13:55:22.000Z,1007.5
2022-08-23T13:56:34.000Z,1007.5
2022-08-23T13:57:46.000Z,1007.5
2022-08-23T13:58:58.000Z,1007.5
2022-08-23T14:00:11.000Z,1007.5
2022-08-23T14:01:23.000Z,1007.5
2022-08-23T14:02:35.000Z,1007.5
2022-08-23T14:03:47.000Z,1007.5
2022-08-23T14:04:59.000Z,1007.6
2022-08-23T14:06:12.000Z,1007.6
2022-08-23T14:07:24.000Z,1007.6
2022-08-23T14:08:35.000Z,1007.5
2022-08-23T14:09:47.000Z,1007.6
2022-08-23T14:10:59.000Z,1007.5
2022-08-23T14:12:12.000Z,1007.5
2022-08-23T14:13:24.000Z,1007.5
2022-08-23T14:14:36.000Z,1007.5
2022-08-23T14:17:00.000Z,1007.6
2022-08-23T14:18:12.000Z,1007.5
2022-08-23T14:19:25.000Z,1007.6
2022-08-23T14:20:37.000Z,1007.5
2022-08-23T14:21:03.000Z,1007.5
2022-08-23T14:21:49.000Z,1007.5
2022-08-23T14:23:01.000Z,1007.5
2022-08-23T14:24:12.000Z,1007.5
2022-08-23T14:25:25.000Z,1007.5
2022-08-23T14:26:37.000Z,1007.5
2022-08-23T14:27:49.000Z,1007.5
2022-08-23T14:29:01.608Z,1007.5
2022-08-23T14:30:13.000Z,1007.5
2022-08-23T14:31:25.000Z,1007.5
2022-08-23T14:32:38.000Z,1007.5
2022-08-23T14:33:50.000Z,1007.4
2022-08-23T14:35:02.000Z,1007.5
2022-08-23T14:36:14.000Z,1007.5
2022-08-23T14:37:26.000Z,1007.4
2022-08-23T14:38:39.000Z,1007.4
2022-08-23T14:39:50.000Z,1007.4
2022-08-23T14:41:02.000Z,1007.4
2022-08-23T14:42:14.000Z,1007.4
2022-08-23T14:43:26.000Z,1007.4
2022-08-23T14:44:39.000Z,1007.5
2022-08-23T14:45:51.000Z,1007.4
2022-08-23T14:47:03.000Z,1007.4
2022-08-23T14:48:15.000Z,1007.4
2022-08-23T14:49:27.000Z,1007.4
2022-08-23T14:50:39.000Z,1007.4
2022-08-23T14:51:52.000Z,1007.4
2022-08-23T14:53:04.000Z,1007.5
2022-08-23T14:54:16.000Z,1007.5
2022-08-23T14:55:27.000Z,1007.4
2022-08-23T14:56:39.000Z,1007.4
2022-08-23T14:57:52.000Z,1007.4
2022-08-23T14:59:04.000Z,1007.3